sensor_id;sensor_type;location;lat;lon;timestamp;P1;durP1;ratioP1;P2;durP2;ratioP2
16524;SDS011;8375;33.594;-117.718;2023-05-07T00:01:59;4.10;;;0.60;;
16524;SDS011;8375;33.594;-117.718;2023-05-07T00:04:28;1.77;;;0.57;;
16524;SDS011;8375;33.594;-117.718;2023-05-07T00:07:03;1.50;;;0.70;;
16524;SDS011;8375;33.594;-117.718;2023-05-07T00:09:32;1.13;;;0.60;;
16524;SDS011;8375;33.594;-117.718;2023-05-07T00:12:01;2.27;;;0.87;;
16524;SDS011;8375;33.594;-117.718;2023-05-07T00:14:29;1.10;;;0.60;;
16524;SDS011;8375;33.594;-117.718;2023-05-07T00:16:58;3.23;;;0.70;;
16524;SDS011;8375;33.594;-117.718;2023-05-07T00:19:27;1.90;;;0.70;;
16524;SDS011;8375;33.594;-117.718;2023-05-07T00:21:56;1.43;;;0.60;;
16524;SDS011;8375;33.594;-117.718;2023-05-07T00:24:26;1.57;;;0.63;;
16524;SDS011;8375;33.594;-117.718;2023-05-07T00:26:55;3.00;;;0.80;;
16524;SDS011;8375;33.594;-117.718;2023-05-07T00:29:24;1.30;;;0.60;;
16524;SDS011;8375;33.594;-117.718;2023-05-07T00:31:52;0.97;;;0.60;;
16524;SDS011;8375;33.594;-117.718;2023-05-07T00:34:21;2.50;;;0.70;;
16524;SDS011;8375;33.594;-117.718;2023-05-07T00:36:50;3.70;;;0.67;;
16524;SDS011;8375;33.594;-117.718;2023-05-07T00:39:19;3.47;;;0.60;;
16524;SDS011;8375;33.594;-117.718;2023-05-07T00:41:49;3.97;;;0.90;;
16524;SDS011;8375;33.594;-117.718;2023-05-07T00:44:18;3.30;;;0.70;;
16524;SDS011;8375;33.594;-117.718;2023-05-07T00:46:47;2.00;;;0.80;;
16524;SDS011;8375;33.594;-117.718;2023-05-07T00:49:16;3.23;;;1.03;;
16524;SDS011;8375;33.594;-117.718;2023-05-07T00:51:45;2.20;;;0.67;;
16524;SDS011;8375;33.594;-117.718;2023-05-07T00:54:15;5.37;;;1.17;;
16524;SDS011;8375;33.594;-117.718;2023-05-07T00:56:45;5.37;;;0.87;;
16524;SDS011;8375;33.594;-117.718;2023-05-07T00:59:15;1.50;;;0.87;;
16524;SDS011;8375;33.594;-117.718;2023-05-07T01:01:44;4.70;;;1.40;;
16524;SDS011;8375;33.594;-117.718;2023-05-07T01:04:13;2.07;;;0.90;;
16524;SDS011;8375;33.594;-117.718;2023-05-07T01:06:42;4.33;;;2.60;;
16524;SDS011;8375;33.594;-117.718;2023-05-07T01:09:12;3.43;;;1.30;;
16524;SDS011;8375;33.594;-117.718;2023-05-07T01:11:41;2.73;;;1.53;;
16524;SDS011;8375;33.594;-117.718;2023-05-07T01:14:11;5.43;;;0.90;;
16524;SDS011;8375;33.594;-117.718;2023-05-07T01:16:41;4.00;;;1.30;;
16524;SDS011;8375;33.594;-117.718;2023-05-07T01:19:11;3.40;;;0.90;;
16524;SDS011;8375;33.594;-117.718;2023-05-07T01:21:42;4.80;;;1.10;;
16524;SDS011;8375;33.594;-117.718;2023-05-07T01:24:15;4.93;;;1.03;;
16524;SDS011;8375;33.594;-117.718;2023-05-07T01:26:45;1.43;;;0.90;;
16524;SDS011;8375;33.594;-117.718;2023-05-07T01:29:14;9.33;;;1.80;;
16524;SDS011;8375;33.594;-117.718;2023-05-07T01:31:43;4.93;;;1.00;;
16524;SDS011;8375;33.594;-117.718;2023-05-07T01:34:12;3.27;;;0.90;;
16524;SDS011;8375;33.594;-117.718;2023-05-07T01:36:43;3.43;;;1.20;;
16524;SDS011;8375;33.594;-117.718;2023-05-07T01:39:16;4.87;;;1.20;;
16524;SDS011;8375;33.594;-117.718;2023-05-07T01:41:45;4.00;;;0.83;;
16524;SDS011;8375;33.594;-117.718;2023-05-07T01:44:15;3.60;;;0.83;;
16524;SDS011;8375;33.594;-117.718;2023-05-07T01:46:46;4.10;;;0.87;;
16524;SDS011;8375;33.594;-117.718;2023-05-07T01:49:16;3.87;;;1.00;;
16524;SDS011;8375;33.594;-117.718;2023-05-07T01:51:45;4.87;;;1.30;;
16524;SDS011;8375;33.594;-117.718;2023-05-07T01:54:16;4.03;;;1.23;;
16524;SDS011;8375;33.594;-117.718;2023-05-07T01:56:46;4.50;;;0.90;;
16524;SDS011;8375;33.594;-117.718;2023-05-07T01:59:15;3.83;;;1.40;;
16524;SDS011;8375;33.594;-117.718;2023-05-07T02:01:43;3.73;;;1.97;;
16524;SDS011;8375;33.594;-117.718;2023-05-07T02:04:13;10.60;;;5.40;;
16524;SDS011;8375;33.594;-117.718;2023-05-07T02:06:41;9.37;;;5.47;;
16524;SDS011;8375;33.594;-117.718;2023-05-07T02:09:10;5.57;;;2.57;;
16524;SDS011;8375;33.594;-117.718;2023-05-07T02:11:42;5.20;;;2.00;;
16524;SDS011;8375;33.594;-117.718;2023-05-07T02:14:10;5.60;;;1.50;;
16524;SDS011;8375;33.594;-117.718;2023-05-07T02:16:39;5.50;;;1.20;;
16524;SDS011;8375;33.594;-117.718;2023-05-07T02:19:08;3.13;;;1.07;;
16524;SDS011;8375;33.594;-117.718;2023-05-07T02:21:36;9.07;;;2.33;;
16524;SDS011;8375;33.594;-117.718;2023-05-07T02:24:05;12.37;;;5.90;;
16524;SDS011;8375;33.594;-117.718;2023-05-07T02:26:34;11.37;;;5.30;;
16524;SDS011;8375;33.594;-117.718;2023-05-07T02:29:04;22.63;;;20.57;;
16524;SDS011;8375;33.594;-117.718;2023-05-07T02:31:33;3.77;;;2.03;;
16524;SDS011;8375;33.594;-117.718;2023-05-07T02:34:02;7.03;;;4.50;;
16524;SDS011;8375;33.594;-117.718;2023-05-07T02:36:30;301.07;;;274.57;;
16524;SDS011;8375;33.594;-117.718;2023-05-07T02:38:59;30.00;;;26.87;;
16524;SDS011;8375;33.594;-117.718;2023-05-07T02:41:28;443.00;;;401.97;;
16524;SDS011;8375;33.594;-117.718;2023-05-07T02:43:56;502.17;;;430.00;;
16524;SDS011;8375;33.594;-117.718;2023-05-07T02:46:27;452.60;;;409.60;;
16524;SDS011;8375;33.594;-117.718;2023-05-07T02:48:55;171.20;;;132.97;;
16524;SDS011;8375;33.594;-117.718;2023-05-07T02:51:25;12.23;;;8.23;;
16524;SDS011;8375;33.594;-117.718;2023-05-07T02:53:54;14.93;;;9.03;;
16524;SDS011;8375;33.594;-117.718;2023-05-07T02:56:22;9.63;;;5.13;;
16524;SDS011;8375;33.594;-117.718;2023-05-07T02:58:53;13.10;;;9.40;;
16524;SDS011;8375;33.594;-117.718;2023-05-07T03:01:22;32.37;;;28.63;;
16524;SDS011;8375;33.594;-117.718;2023-05-07T03:03:53;6.60;;;2.97;;
16524;SDS011;8375;33.594;-117.718;2023-05-07T03:06:23;7.20;;;1.40;;
16524;SDS011;8375;33.594;-117.718;2023-05-07T03:08:52;6.70;;;1.93;;
16524;SDS011;8375;33.594;-117.718;2023-05-07T03:11:20;35.63;;;23.87;;
16524;SDS011;8375;33.594;-117.718;2023-05-07T03:13:49;119.70;;;84.50;;
16524;SDS011;8375;33.594;-117.718;2023-05-07T03:16:17;84.00;;;55.20;;
16524;SDS011;8375;33.594;-117.718;2023-05-07T03:18:46;9.57;;;4.43;;
16524;SDS011;8375;33.594;-117.718;2023-05-07T03:21:17;230.87;;;154.23;;
16524;SDS011;8375;33.594;-117.718;2023-05-07T03:23:46;43.40;;;30.60;;
16524;SDS011;8375;33.594;-117.718;2023-05-07T03:26:15;16.63;;;13.40;;
16524;SDS011;8375;33.594;-117.718;2023-05-07T03:28:43;11.87;;;6.80;;
16524;SDS011;8375;33.594;-117.718;2023-05-07T03:31:12;4.90;;;1.90;;
16524;SDS011;8375;33.594;-117.718;2023-05-07T03:33:49;4.10;;;1.23;;
16524;SDS011;8375;33.594;-117.718;2023-05-07T03:36:21;5.63;;;2.00;;
16524;SDS011;8375;33.594;-117.718;2023-05-07T03:38:50;7.37;;;2.43;;
16524;SDS011;8375;33.594;-117.718;2023-05-07T03:41:19;4.60;;;1.67;;
16524;SDS011;8375;33.594;-117.718;2023-05-07T03:43:48;6.47;;;1.60;;
16524;SDS011;8375;33.594;-117.718;2023-05-07T03:46:17;3.87;;;1.40;;
16524;SDS011;8375;33.594;-117.718;2023-05-07T03:48:46;4.87;;;1.10;;
16524;SDS011;8375;33.594;-117.718;2023-05-07T03:51:14;3.97;;;1.10;;
16524;SDS011;8375;33.594;-117.718;2023-05-07T03:53:45;7.13;;;1.40;;
16524;SDS011;8375;33.594;-117.718;2023-05-07T03:56:14;3.33;;;1.00;;
16524;SDS011;8375;33.594;-117.718;2023-05-07T03:58:42;3.93;;;1.20;;
16524;SDS011;8375;33.594;-117.718;2023-05-07T04:01:11;4.87;;;1.20;;
16524;SDS011;8375;33.594;-117.718;2023-05-07T04:03:40;4.60;;;1.10;;
16524;SDS011;8375;33.594;-117.718;2023-05-07T04:06:08;9.07;;;1.40;;
16524;SDS011;8375;33.594;-117.718;2023-05-07T04:08:37;5.17;;;1.30;;
16524;SDS011;8375;33.594;-117.718;2023-05-07T04:11:08;4.07;;;1.33;;
16524;SDS011;8375;33.594;-117.718;2023-05-07T04:13:36;3.53;;;1.20;;
16524;SDS011;8375;33.594;-117.718;2023-05-07T04:16:05;5.03;;;1.33;;
16524;SDS011;8375;33.594;-117.718;2023-05-07T04:18:34;6.70;;;1.40;;
16524;SDS011;8375;33.594;-117.718;2023-05-07T04:21:03;5.17;;;1.10;;
16524;SDS011;8375;33.594;-117.718;2023-05-07T04:23:32;8.47;;;1.20;;
16524;SDS011;8375;33.594;-117.718;2023-05-07T04:26:00;3.27;;;1.00;;
16524;SDS011;8375;33.594;-117.718;2023-05-07T04:28:31;3.90;;;1.20;;
16524;SDS011;8375;33.594;-117.718;2023-05-07T04:30:59;5.03;;;1.33;;
16524;SDS011;8375;33.594;-117.718;2023-05-07T04:33:28;7.17;;;1.53;;
16524;SDS011;8375;33.594;-117.718;2023-05-07T04:35:57;4.30;;;1.30;;
16524;SDS011;8375;33.594;-117.718;2023-05-07T04:38:29;4.07;;;1.17;;
16524;SDS011;8375;33.594;-117.718;2023-05-07T04:41:02;5.70;;;2.30;;
16524;SDS011;8375;33.594;-117.718;2023-05-07T04:43:33;5.33;;;3.40;;
16524;SDS011;8375;33.594;-117.718;2023-05-07T04:46:02;5.20;;;2.10;;
16524;SDS011;8375;33.594;-117.718;2023-05-07T04:48:33;4.20;;;1.70;;
16524;SDS011;8375;33.594;-117.718;2023-05-07T04:51:02;6.70;;;1.40;;
16524;SDS011;8375;33.594;-117.718;2023-05-07T04:53:31;5.13;;;1.50;;
16524;SDS011;8375;33.594;-117.718;2023-05-07T04:55:59;3.03;;;1.10;;
16524;SDS011;8375;33.594;-117.718;2023-05-07T04:58:28;6.93;;;1.50;;
16524;SDS011;8375;33.594;-117.718;2023-05-07T05:00:59;4.07;;;1.43;;
16524;SDS011;8375;33.594;-117.718;2023-05-07T05:03:28;3.67;;;1.37;;
16524;SDS011;8375;33.594;-117.718;2023-05-07T05:05:57;5.40;;;1.27;;
16524;SDS011;8375;33.594;-117.718;2023-05-07T05:08:26;4.27;;;1.30;;
16524;SDS011;8375;33.594;-117.718;2023-05-07T05:10:55;3.27;;;1.13;;
16524;SDS011;8375;33.594;-117.718;2023-05-07T05:13:23;5.83;;;1.27;;
16524;SDS011;8375;33.594;-117.718;2023-05-07T05:15:52;3.63;;;1.30;;
16524;SDS011;8375;33.594;-117.718;2023-05-07T05:18:23;4.23;;;1.40;;
16524;SDS011;8375;33.594;-117.718;2023-05-07T05:20:51;7.83;;;1.77;;
16524;SDS011;8375;33.594;-117.718;2023-05-07T05:23:20;4.10;;;1.60;;
16524;SDS011;8375;33.594;-117.718;2023-05-07T05:25:49;4.73;;;1.33;;
16524;SDS011;8375;33.594;-117.718;2023-05-07T05:28:17;3.13;;;1.20;;
16524;SDS011;8375;33.594;-117.718;2023-05-07T05:30:46;5.37;;;1.60;;
16524;SDS011;8375;33.594;-117.718;2023-05-07T05:33:15;6.07;;;1.30;;
16524;SDS011;8375;33.594;-117.718;2023-05-07T05:35:45;6.83;;;1.30;;
16524;SDS011;8375;33.594;-117.718;2023-05-07T05:38:13;4.97;;;1.73;;
16524;SDS011;8375;33.594;-117.718;2023-05-07T05:40:42;5.83;;;1.40;;
16524;SDS011;8375;33.594;-117.718;2023-05-07T05:43:11;4.80;;;1.63;;
16524;SDS011;8375;33.594;-117.718;2023-05-07T05:45:39;3.60;;;1.60;;
16524;SDS011;8375;33.594;-117.718;2023-05-07T05:48:08;5.07;;;1.47;;
16524;SDS011;8375;33.594;-117.718;2023-05-07T05:50:37;8.10;;;1.30;;
16524;SDS011;8375;33.594;-117.718;2023-05-07T05:53:07;7.83;;;1.43;;
16524;SDS011;8375;33.594;-117.718;2023-05-07T05:55:36;3.70;;;1.10;;
16524;SDS011;8375;33.594;-117.718;2023-05-07T05:58:05;4.20;;;1.27;;
16524;SDS011;8375;33.594;-117.718;2023-05-07T06:00:34;4.10;;;1.37;;
16524;SDS011;8375;33.594;-117.718;2023-05-07T06:03:03;5.73;;;1.73;;
16524;SDS011;8375;33.594;-117.718;2023-05-07T06:05:32;5.23;;;1.57;;
16524;SDS011;8375;33.594;-117.718;2023-05-07T06:08:01;7.10;;;1.50;;
16524;SDS011;8375;33.594;-117.718;2023-05-07T06:10:32;3.43;;;1.70;;
16524;SDS011;8375;33.594;-117.718;2023-05-07T06:13:01;5.73;;;1.57;;
16524;SDS011;8375;33.594;-117.718;2023-05-07T06:15:30;3.50;;;1.30;;
16524;SDS011;8375;33.594;-117.718;2023-05-07T06:17:59;5.40;;;1.13;;
16524;SDS011;8375;33.594;-117.718;2023-05-07T06:20:27;8.00;;;1.73;;
16524;SDS011;8375;33.594;-117.718;2023-05-07T06:22:56;6.10;;;1.50;;
16524;SDS011;8375;33.594;-117.718;2023-05-07T06:25:25;5.27;;;1.57;;
16524;SDS011;8375;33.594;-117.718;2023-05-07T06:27:55;4.17;;;1.57;;
16524;SDS011;8375;33.594;-117.718;2023-05-07T06:30:24;3.53;;;1.50;;
16524;SDS011;8375;33.594;-117.718;2023-05-07T06:32:52;3.40;;;1.50;;
16524;SDS011;8375;33.594;-117.718;2023-05-07T06:35:21;4.27;;;1.33;;
16524;SDS011;8375;33.594;-117.718;2023-05-07T06:37:50;8.43;;;1.90;;
16524;SDS011;8375;33.594;-117.718;2023-05-07T06:40:18;5.00;;;1.60;;
16524;SDS011;8375;33.594;-117.718;2023-05-07T06:42:47;7.57;;;1.67;;
16524;SDS011;8375;33.594;-117.718;2023-05-07T06:45:18;4.33;;;1.60;;
16524;SDS011;8375;33.594;-117.718;2023-05-07T06:47:47;4.37;;;1.37;;
16524;SDS011;8375;33.594;-117.718;2023-05-07T06:50:16;7.60;;;2.30;;
16524;SDS011;8375;33.594;-117.718;2023-05-07T06:52:45;7.20;;;1.70;;
16524;SDS011;8375;33.594;-117.718;2023-05-07T06:55:13;6.50;;;1.97;;
16524;SDS011;8375;33.594;-117.718;2023-05-07T06:57:42;4.43;;;1.63;;
16524;SDS011;8375;33.594;-117.718;2023-05-07T07:00:11;5.77;;;2.03;;
16524;SDS011;8375;33.594;-117.718;2023-05-07T07:02:42;7.03;;;1.80;;
16524;SDS011;8375;33.594;-117.718;2023-05-07T07:05:11;5.13;;;1.57;;
16524;SDS011;8375;33.594;-117.718;2023-05-07T07:07:40;5.53;;;1.80;;
16524;SDS011;8375;33.594;-117.718;2023-05-07T07:10:09;4.23;;;1.67;;
16524;SDS011;8375;33.594;-117.718;2023-05-07T07:12:37;6.60;;;1.90;;
16524;SDS011;8375;33.594;-117.718;2023-05-07T07:15:06;5.80;;;2.17;;
16524;SDS011;8375;33.594;-117.718;2023-05-07T07:17:35;6.03;;;1.90;;
16524;SDS011;8375;33.594;-117.718;2023-05-07T07:20:07;6.90;;;2.00;;
16524;SDS011;8375;33.594;-117.718;2023-05-07T07:22:36;6.80;;;2.20;;
16524;SDS011;8375;33.594;-117.718;2023-05-07T07:25:05;3.40;;;1.57;;
16524;SDS011;8375;33.594;-117.718;2023-05-07T07:27:34;6.33;;;1.87;;
16524;SDS011;8375;33.594;-117.718;2023-05-07T07:30:03;7.40;;;1.90;;
16524;SDS011;8375;33.594;-117.718;2023-05-07T07:32:33;5.17;;;1.83;;
16524;SDS011;8375;33.594;-117.718;2023-05-07T07:35:02;4.23;;;1.33;;
16524;SDS011;8375;33.594;-117.718;2023-05-07T07:37:33;2.23;;;1.50;;
16524;SDS011;8375;33.594;-117.718;2023-05-07T07:40:02;6.83;;;1.83;;
16524;SDS011;8375;33.594;-117.718;2023-05-07T07:42:31;5.10;;;1.57;;
16524;SDS011;8375;33.594;-117.718;2023-05-07T07:45:00;7.03;;;1.93;;
16524;SDS011;8375;33.594;-117.718;2023-05-07T07:47:28;5.43;;;1.93;;
16524;SDS011;8375;33.594;-117.718;2023-05-07T07:49:57;6.17;;;1.90;;
16524;SDS011;8375;33.594;-117.718;2023-05-07T07:52:26;5.00;;;2.07;;
16524;SDS011;8375;33.594;-117.718;2023-05-07T07:54:57;4.07;;;1.77;;
16524;SDS011;8375;33.594;-117.718;2023-05-07T07:57:25;5.03;;;1.70;;
16524;SDS011;8375;33.594;-117.718;2023-05-07T07:59:54;3.40;;;1.50;;
16524;SDS011;8375;33.594;-117.718;2023-05-07T08:02:23;7.33;;;1.73;;
16524;SDS011;8375;33.594;-117.718;2023-05-07T08:04:51;3.67;;;2.00;;
16524;SDS011;8375;33.594;-117.718;2023-05-07T08:07:21;6.53;;;1.80;;
16524;SDS011;8375;33.594;-117.718;2023-05-07T08:09:49;5.90;;;2.10;;
16524;SDS011;8375;33.594;-117.718;2023-05-07T08:12:20;6.03;;;2.00;;
16524;SDS011;8375;33.594;-117.718;2023-05-07T08:14:48;6.73;;;1.50;;
16524;SDS011;8375;33.594;-117.718;2023-05-07T08:17:17;6.13;;;2.00;;
16524;SDS011;8375;33.594;-117.718;2023-05-07T08:19:47;5.33;;;1.80;;
16524;SDS011;8375;33.594;-117.718;2023-05-07T08:22:16;4.93;;;1.60;;
16524;SDS011;8375;33.594;-117.718;2023-05-07T08:24:45;4.93;;;1.90;;
16524;SDS011;8375;33.594;-117.718;2023-05-07T08:27:13;5.47;;;1.80;;
16524;SDS011;8375;33.594;-117.718;2023-05-07T08:29:44;3.13;;;1.70;;
16524;SDS011;8375;33.594;-117.718;2023-05-07T08:32:13;5.47;;;1.93;;
16524;SDS011;8375;33.594;-117.718;2023-05-07T08:34:42;4.90;;;2.30;;
16524;SDS011;8375;33.594;-117.718;2023-05-07T08:37:11;7.23;;;2.37;;
16524;SDS011;8375;33.594;-117.718;2023-05-07T08:39:40;5.07;;;2.03;;
16524;SDS011;8375;33.594;-117.718;2023-05-07T08:42:10;3.67;;;2.00;;
16524;SDS011;8375;33.594;-117.718;2023-05-07T08:44:40;3.57;;;1.80;;
16524;SDS011;8375;33.594;-117.718;2023-05-07T08:47:13;6.37;;;2.90;;
16524;SDS011;8375;33.594;-117.718;2023-05-07T08:49:42;3.23;;;1.77;;
16524;SDS011;8375;33.594;-117.718;2023-05-07T08:52:11;3.93;;;1.93;;
16524;SDS011;8375;33.594;-117.718;2023-05-07T08:54:40;5.17;;;2.20;;
16524;SDS011;8375;33.594;-117.718;2023-05-07T08:57:09;5.43;;;1.70;;
16524;SDS011;8375;33.594;-117.718;2023-05-07T08:59:38;6.10;;;2.03;;
16524;SDS011;8375;33.594;-117.718;2023-05-07T09:02:09;3.57;;;1.93;;
16524;SDS011;8375;33.594;-117.718;2023-05-07T09:04:38;8.93;;;2.43;;
16524;SDS011;8375;33.594;-117.718;2023-05-07T09:07:07;5.20;;;2.10;;
16524;SDS011;8375;33.594;-117.718;2023-05-07T09:09:36;7.43;;;2.50;;
16524;SDS011;8375;33.594;-117.718;2023-05-07T09:12:05;4.90;;;2.30;;
16524;SDS011;8375;33.594;-117.718;2023-05-07T09:14:35;6.03;;;1.80;;
16524;SDS011;8375;33.594;-117.718;2023-05-07T09:17:04;3.67;;;1.80;;
16524;SDS011;8375;33.594;-117.718;2023-05-07T09:19:35;6.67;;;2.13;;
16524;SDS011;8375;33.594;-117.718;2023-05-07T09:22:04;4.03;;;1.70;;
16524;SDS011;8375;33.594;-117.718;2023-05-07T09:24:34;7.70;;;1.97;;
16524;SDS011;8375;33.594;-117.718;2023-05-07T09:27:03;4.83;;;1.93;;
16524;SDS011;8375;33.594;-117.718;2023-05-07T09:29:33;6.67;;;2.37;;
16524;SDS011;8375;33.594;-117.718;2023-05-07T09:32:02;9.47;;;2.20;;
16524;SDS011;8375;33.594;-117.718;2023-05-07T09:34:34;6.20;;;2.40;;
16524;SDS011;8375;33.594;-117.718;2023-05-07T09:37:03;6.70;;;1.90;;
16524;SDS011;8375;33.594;-117.718;2023-05-07T09:39:39;5.17;;;2.00;;
16524;SDS011;8375;33.594;-117.718;2023-05-07T09:42:09;6.53;;;2.23;;
16524;SDS011;8375;33.594;-117.718;2023-05-07T09:44:38;3.67;;;2.30;;
16524;SDS011;8375;33.594;-117.718;2023-05-07T09:47:07;6.07;;;2.00;;
16524;SDS011;8375;33.594;-117.718;2023-05-07T09:49:39;3.97;;;1.90;;
16524;SDS011;8375;33.594;-117.718;2023-05-07T09:52:11;6.60;;;2.00;;
16524;SDS011;8375;33.594;-117.718;2023-05-07T09:54:41;7.17;;;2.40;;
16524;SDS011;8375;33.594;-117.718;2023-05-07T09:57:12;5.17;;;1.90;;
16524;SDS011;8375;33.594;-117.718;2023-05-07T09:59:42;5.90;;;2.40;;
16524;SDS011;8375;33.594;-117.718;2023-05-07T10:02:13;8.00;;;2.43;;
16524;SDS011;8375;33.594;-117.718;2023-05-07T10:04:44;4.87;;;1.90;;
16524;SDS011;8375;33.594;-117.718;2023-05-07T10:07:14;3.93;;;2.10;;
16524;SDS011;8375;33.594;-117.718;2023-05-07T10:09:43;5.53;;;2.30;;
16524;SDS011;8375;33.594;-117.718;2023-05-07T10:12:13;7.83;;;2.47;;
16524;SDS011;8375;33.594;-117.718;2023-05-07T10:14:43;6.57;;;2.70;;
16524;SDS011;8375;33.594;-117.718;2023-05-07T10:17:13;5.40;;;2.20;;
16524;SDS011;8375;33.594;-117.718;2023-05-07T10:19:46;5.20;;;2.07;;
16524;SDS011;8375;33.594;-117.718;2023-05-07T10:22:16;7.93;;;2.43;;
16524;SDS011;8375;33.594;-117.718;2023-05-07T10:24:45;5.30;;;2.60;;
16524;SDS011;8375;33.594;-117.718;2023-05-07T10:27:16;5.30;;;2.30;;
16524;SDS011;8375;33.594;-117.718;2023-05-07T10:29:49;7.00;;;2.40;;
16524;SDS011;8375;33.594;-117.718;2023-05-07T10:32:30;6.83;;;2.57;;
16524;SDS011;8375;33.594;-117.718;2023-05-07T10:35:09;3.80;;;1.80;;
16524;SDS011;8375;33.594;-117.718;2023-05-07T10:37:41;6.57;;;2.10;;
16524;SDS011;8375;33.594;-117.718;2023-05-07T10:40:11;9.00;;;2.33;;
16524;SDS011;8375;33.594;-117.718;2023-05-07T10:42:53;5.93;;;2.00;;
16524;SDS011;8375;33.594;-117.718;2023-05-07T10:45:24;3.93;;;2.43;;
16524;SDS011;8375;33.594;-117.718;2023-05-07T10:50:39;4.57;;;2.13;;
16524;SDS011;8375;33.594;-117.718;2023-05-07T10:53:21;5.00;;;2.50;;
16524;SDS011;8375;33.594;-117.718;2023-05-07T10:59:00;5.40;;;2.30;;
16524;SDS011;8375;33.594;-117.718;2023-05-07T11:02:07;4.37;;;2.00;;
16524;SDS011;8375;33.594;-117.718;2023-05-07T11:04:37;5.43;;;2.17;;
16524;SDS011;8375;33.594;-117.718;2023-05-07T11:10:04;3.93;;;2.13;;
16524;SDS011;8375;33.594;-117.718;2023-05-07T11:12:52;4.17;;;1.70;;
16524;SDS011;8375;33.594;-117.718;2023-05-07T11:15:34;5.30;;;1.80;;
16524;SDS011;8375;33.594;-117.718;2023-05-07T11:18:07;3.03;;;2.10;;
16524;SDS011;8375;33.594;-117.718;2023-05-07T11:26:26;6.00;;;1.90;;
16524;SDS011;8375;33.594;-117.718;2023-05-07T11:28:55;3.07;;;1.80;;
16524;SDS011;8375;33.594;-117.718;2023-05-07T11:31:26;4.80;;;2.33;;
16524;SDS011;8375;33.594;-117.718;2023-05-07T11:33:55;3.30;;;1.80;;
16524;SDS011;8375;33.594;-117.718;2023-05-07T11:36:24;3.13;;;1.90;;
16524;SDS011;8375;33.594;-117.718;2023-05-07T11:38:54;4.90;;;2.20;;
16524;SDS011;8375;33.594;-117.718;2023-05-07T11:41:32;5.57;;;2.40;;
16524;SDS011;8375;33.594;-117.718;2023-05-07T11:44:02;4.80;;;1.90;;
16524;SDS011;8375;33.594;-117.718;2023-05-07T11:46:31;3.33;;;1.87;;
16524;SDS011;8375;33.594;-117.718;2023-05-07T11:49:01;5.67;;;2.07;;
16524;SDS011;8375;33.594;-117.718;2023-05-07T11:51:30;3.77;;;1.77;;
16524;SDS011;8375;33.594;-117.718;2023-05-07T11:53:58;6.43;;;2.10;;
16524;SDS011;8375;33.594;-117.718;2023-05-07T11:56:29;7.97;;;2.23;;
16524;SDS011;8375;33.594;-117.718;2023-05-07T11:59:01;4.90;;;1.90;;
16524;SDS011;8375;33.594;-117.718;2023-05-07T12:01:30;3.63;;;1.93;;
16524;SDS011;8375;33.594;-117.718;2023-05-07T12:03:59;5.97;;;2.10;;
16524;SDS011;8375;33.594;-117.718;2023-05-07T12:06:35;7.87;;;2.47;;
16524;SDS011;8375;33.594;-117.718;2023-05-07T12:09:05;4.13;;;1.97;;
16524;SDS011;8375;33.594;-117.718;2023-05-07T12:11:38;3.77;;;2.00;;
16524;SDS011;8375;33.594;-117.718;2023-05-07T12:14:07;6.00;;;2.03;;
16524;SDS011;8375;33.594;-117.718;2023-05-07T12:16:36;4.07;;;1.80;;
16524;SDS011;8375;33.594;-117.718;2023-05-07T12:19:06;4.67;;;2.17;;
16524;SDS011;8375;33.594;-117.718;2023-05-07T12:21:38;5.97;;;1.63;;
16524;SDS011;8375;33.594;-117.718;2023-05-07T12:24:08;7.23;;;1.90;;
16524;SDS011;8375;33.594;-117.718;2023-05-07T12:26:39;5.13;;;2.37;;
16524;SDS011;8375;33.594;-117.718;2023-05-07T12:29:08;7.90;;;2.33;;
16524;SDS011;8375;33.594;-117.718;2023-05-07T12:31:36;5.00;;;2.17;;
16524;SDS011;8375;33.594;-117.718;2023-05-07T12:34:10;4.63;;;1.90;;
16524;SDS011;8375;33.594;-117.718;2023-05-07T12:36:39;4.53;;;2.03;;
16524;SDS011;8375;33.594;-117.718;2023-05-07T12:39:08;6.63;;;2.13;;
16524;SDS011;8375;33.594;-117.718;2023-05-07T12:44:35;4.63;;;1.90;;
16524;SDS011;8375;33.594;-117.718;2023-05-07T12:47:03;4.70;;;1.90;;
16524;SDS011;8375;33.594;-117.718;2023-05-07T12:49:34;5.53;;;2.33;;
16524;SDS011;8375;33.594;-117.718;2023-05-07T12:52:04;6.67;;;2.13;;
16524;SDS011;8375;33.594;-117.718;2023-05-07T12:54:34;4.77;;;2.23;;
16524;SDS011;8375;33.594;-117.718;2023-05-07T12:57:05;8.23;;;2.50;;
16524;SDS011;8375;33.594;-117.718;2023-05-07T12:59:37;5.37;;;2.07;;
16524;SDS011;8375;33.594;-117.718;2023-05-07T13:02:07;5.00;;;1.80;;
16524;SDS011;8375;33.594;-117.718;2023-05-07T13:04:36;5.03;;;2.00;;
16524;SDS011;8375;33.594;-117.718;2023-05-07T13:07:05;4.60;;;1.80;;
16524;SDS011;8375;33.594;-117.718;2023-05-07T13:09:33;4.93;;;1.73;;
16524;SDS011;8375;33.594;-117.718;2023-05-07T13:12:02;7.63;;;1.93;;
16524;SDS011;8375;33.594;-117.718;2023-05-07T13:14:31;4.77;;;1.77;;
16524;SDS011;8375;33.594;-117.718;2023-05-07T13:17:02;9.27;;;2.30;;
16524;SDS011;8375;33.594;-117.718;2023-05-07T13:19:30;5.97;;;2.43;;
16524;SDS011;8375;33.594;-117.718;2023-05-07T13:21:59;3.83;;;2.27;;
16524;SDS011;8375;33.594;-117.718;2023-05-07T13:24:28;4.50;;;1.90;;
16524;SDS011;8375;33.594;-117.718;2023-05-07T13:26:56;5.80;;;2.17;;
16524;SDS011;8375;33.594;-117.718;2023-05-07T13:29:25;5.00;;;2.10;;
16524;SDS011;8375;33.594;-117.718;2023-05-07T13:31:56;3.57;;;2.00;;
16524;SDS011;8375;33.594;-117.718;2023-05-07T13:34:27;4.87;;;2.57;;
16524;SDS011;8375;33.594;-117.718;2023-05-07T13:36:56;5.60;;;1.93;;
16524;SDS011;8375;33.594;-117.718;2023-05-07T13:39:25;4.97;;;2.20;;
16524;SDS011;8375;33.594;-117.718;2023-05-07T13:41:53;5.73;;;2.10;;
16524;SDS011;8375;33.594;-117.718;2023-05-07T13:44:22;6.20;;;2.23;;
16524;SDS011;8375;33.594;-117.718;2023-05-07T13:46:51;4.93;;;2.10;;
16524;SDS011;8375;33.594;-117.718;2023-05-07T13:49:19;5.00;;;2.27;;
16524;SDS011;8375;33.594;-117.718;2023-05-07T13:51:50;4.33;;;2.00;;
16524;SDS011;8375;33.594;-117.718;2023-05-07T13:54:18;3.80;;;1.93;;
16524;SDS011;8375;33.594;-117.718;2023-05-07T13:56:47;4.50;;;2.37;;
16524;SDS011;8375;33.594;-117.718;2023-05-07T13:59:16;6.23;;;2.30;;
16524;SDS011;8375;33.594;-117.718;2023-05-07T14:01:44;5.33;;;2.53;;
16524;SDS011;8375;33.594;-117.718;2023-05-07T14:04:13;4.00;;;2.27;;
16524;SDS011;8375;33.594;-117.718;2023-05-07T14:06:42;3.20;;;2.20;;
16524;SDS011;8375;33.594;-117.718;2023-05-07T14:09:12;6.30;;;2.47;;
16524;SDS011;8375;33.594;-117.718;2023-05-07T14:11:41;4.67;;;2.10;;
16524;SDS011;8375;33.594;-117.718;2023-05-07T14:14:10;3.70;;;2.20;;
16524;SDS011;8375;33.594;-117.718;2023-05-07T14:16:39;4.77;;;2.47;;
16524;SDS011;8375;33.594;-117.718;2023-05-07T14:19:07;4.83;;;1.80;;
16524;SDS011;8375;33.594;-117.718;2023-05-07T14:21:36;4.47;;;2.77;;
16524;SDS011;8375;33.594;-117.718;2023-05-07T14:24:06;3.80;;;1.67;;
16524;SDS011;8375;33.594;-117.718;2023-05-07T14:26:37;2.63;;;1.70;;
16524;SDS011;8375;33.594;-117.718;2023-05-07T14:29:05;3.70;;;1.70;;
16524;SDS011;8375;33.594;-117.718;2023-05-07T14:31:34;4.37;;;1.40;;
16524;SDS011;8375;33.594;-117.718;2023-05-07T14:34:03;2.63;;;1.70;;
16524;SDS011;8375;33.594;-117.718;2023-05-07T14:36:31;4.00;;;2.03;;
16524;SDS011;8375;33.594;-117.718;2023-05-07T14:39:00;3.20;;;1.70;;
16524;SDS011;8375;33.594;-117.718;2023-05-07T14:41:29;5.73;;;1.73;;
16524;SDS011;8375;33.594;-117.718;2023-05-07T14:44:00;6.23;;;1.50;;
16524;SDS011;8375;33.594;-117.718;2023-05-07T14:46:29;5.00;;;1.60;;
16524;SDS011;8375;33.594;-117.718;2023-05-07T14:48:58;4.47;;;1.97;;
16524;SDS011;8375;33.594;-117.718;2023-05-07T14:51:27;3.70;;;2.00;;
16524;SDS011;8375;33.594;-117.718;2023-05-07T14:53:56;5.03;;;1.67;;